createdAt,value
2018-08-18T00:00:15.609Z,99417.41
2018-08-18T00:02:44.383Z,99424.27
2018-08-18T00:05:13.599Z,99428.83
2018-08-18T00:07:42.457Z,99425.44
2018-08-18T00:10:13.001Z,99419.59
2018-08-18T00:12:41.383Z,99415.88
2018-08-18T00:15:09.967Z,99418.66
2018-08-18T00:17:39.742Z,99410.55
2018-08-18T00:20:11.322Z,99417.73
2018-08-18T00:22:39.581Z,99410.47
2018-08-18T00:25:09.431Z,99414.82
2018-08-18T00:27:38.839Z,99455.36
2018-08-18T00:30:41.928Z,99418.91
2018-08-18T00:33:13.541Z,99402.55
2018-08-18T00:35:43.996Z,99402.22
2018-08-18T00:38:12.320Z,99416.38
2018-08-18T00:40:41.256Z,99418.84
2018-08-18T00:43:10.332Z,99374.45
2018-08-18T00:45:43.886Z,99429.55
2018-08-18T00:48:13.586Z,99411.02
2018-08-18T00:50:43.807Z,99429.91
2018-08-18T00:53:14.640Z,99399.95
2018-08-18T00:55:43.411Z,99412.80
2018-08-18T00:58:16.509Z,99364.61
2018-08-18T01:00:49.628Z,99428.78
2018-08-18T01:03:20.740Z,99402.89
2018-08-18T01:05:49.622Z,99444.02
2018-08-18T01:08:18.733Z,99449.77
2018-08-18T01:10:48.152Z,99447.73
2018-08-18T01:13:17.079Z,99448.42
2018-08-18T01:15:45.920Z,99450.86
2018-08-18T01:18:14.516Z,99433.05
2018-08-18T01:20:42.949Z,99451.09
2018-08-18T01:23:11.128Z,99437.13
2018-08-18T01:25:41.096Z,99454.46
2018-08-18T01:28:09.842Z,99451.02
2018-08-18T01:30:38.622Z,99447.55
2018-08-18T01:33:07.790Z,99463.88
2018-08-18T01:35:36.140Z,99460.06
2018-08-18T01:38:05.740Z,99465.09
2018-08-18T01:40:34.615Z,99437.50
2018-08-18T01:43:02.803Z,99467.92
2018-08-18T01:45:31.700Z,99450.50
2018-08-18T01:48:00.450Z,99477.80
2018-08-18T01:50:29.192Z,99443.34
2018-08-18T01:52:57.824Z,99434.44
2018-08-18T01:55:26.728Z,99453.55
2018-08-18T01:57:55.209Z,99467.80
2018-08-18T02:00:24.938Z,99408.80
2018-08-18T02:02:54.562Z,99466.03
2018-08-18T02:05:23.130Z,99461.21
2018-08-18T02:07:52.204Z,99463.36
2018-08-18T02:10:21.330Z,99461.66
2018-08-18T02:13:02.556Z,99433.12
2018-08-18T02:15:31.492Z,99406.10
2018-08-18T02:18:00.262Z,99462.42
2018-08-18T02:20:28.622Z,99467.87
2018-08-18T02:22:57.099Z,99472.11
2018-08-18T02:25:25.604Z,99470.88
2018-08-18T02:27:53.939Z,99457.52
2018-08-18T02:30:23.049Z,99485.50
2018-08-18T02:32:52.052Z,99442.40
2018-08-18T02:35:22.425Z,99475.77
2018-08-18T02:37:52.308Z,99409.71
2018-08-18T02:40:21.338Z,99476.64
2018-08-18T02:42:49.954Z,99424.45
2018-08-18T02:45:18.285Z,99419.22
2018-08-18T02:47:47.051Z,99468.48
2018-08-18T02:50:15.436Z,99456.98
2018-08-18T02:52:43.892Z,99478.67
2018-08-18T02:55:12.699Z,99425.23
2018-08-18T02:57:42.538Z,99430.69
2018-08-18T03:00:22.765Z,99475.86
2018-08-18T03:02:51.787Z,99310.23
2018-08-18T03:05:20.358Z,99479.28
2018-08-18T03:07:50.266Z,99436.08
2018-08-18T03:10:26.954Z,99475.02
2018-08-18T03:12:59.829Z,99446.35
2018-08-18T03:16:01.160Z,99482.20
2018-08-18T03:18:35.903Z,99471.48
2018-08-18T03:21:05.884Z,99486.77
2018-08-18T03:23:36.235Z,99486.20
2018-08-18T03:26:05.231Z,99493.80
2018-08-18T03:28:41.881Z,99499.25
2018-08-18T03:31:11.054Z,99492.05
2018-08-18T03:33:40.690Z,99492.55
2018-08-18T03:36:23.348Z,99485.14
2018-08-18T03:38:53.546Z,99471.02
2018-08-18T03:41:23.227Z,99459.23
2018-08-18T03:43:52.679Z,99474.02
2018-08-18T03:46:21.884Z,99482.73
2018-08-18T03:48:50.871Z,99456.17
2018-08-18T03:51:19.960Z,99490.60
2018-08-18T03:53:48.384Z,99489.42
2018-08-18T03:56:16.864Z,99497.27
2018-08-18T03:58:53.972Z,99452.72
2018-08-18T04:01:39.151Z,99487.39
2018-08-18T04:04:08.852Z,99500.73
2018-08-18T04:06:42.419Z,99482.47
2018-08-18T04:09:15.985Z,99501.35
2018-08-18T04:11:47.546Z,99503.02
2018-08-18T04:14:18.737Z,99492.48
2018-08-18T04:16:49.007Z,99507.36
2018-08-18T04:19:18.481Z,99519.33
2018-08-18T04:21:48.362Z,99510.19
2018-08-18T04:24:16.866Z,99485.14
2018-08-18T04:26:48.030Z,99442.72
2018-08-18T04:29:16.983Z,99516.30
2018-08-18T04:31:45.582Z,99503.98
2018-08-18T04:34:14.060Z,99508.75
2018-08-18T04:36:42.514Z,99515.97
2018-08-18T04:39:11.896Z,99484.74
2018-08-18T04:41:41.554Z,99516.45
2018-08-18T04:44:10.531Z,99516.20
2018-08-18T04:46:39.088Z,99517.14
2018-08-18T04:49:07.610Z,99525.75
2018-08-18T04:51:36.192Z,99508.13
2018-08-18T04:54:04.831Z,99507.44
2018-08-18T04:56:33.628Z,99527.84
2018-08-18T04:59:02.506Z,99498.39
2018-08-18T05:01:30.908Z,99532.91
2018-08-18T05:04:03.520Z,99539.46
2018-08-18T05:06:32.974Z,99540.98
2018-08-18T05:09:03.158Z,99543.03
2018-08-18T05:11:31.916Z,99479.84
2018-08-18T05:14:00.785Z,99543.95
2018-08-18T05:16:28.990Z,99539.46
2018-08-18T05:18:57.179Z,99548.69
2018-08-18T05:21:26.872Z,99545.22
2018-08-18T05:23:55.442Z,99546.25
2018-08-18T05:26:23.859Z,99551.16
2018-08-18T05:28:52.902Z,99544.88
2018-08-18T05:31:21.932Z,99514.17
2018-08-18T05:33:50.198Z,99549.70
2018-08-18T05:36:18.607Z,99552.45
2018-08-18T05:38:47.122Z,99551.72
2018-08-18T05:41:15.698Z,99553.36
2018-08-18T05:43:49.211Z,99545.37
2018-08-18T05:46:18.137Z,99547.25
2018-08-18T05:48:46.954Z,99572.50
2018-08-18T05:51:15.193Z,99555.17
2018-08-18T05:53:43.830Z,99533.55
2018-08-18T05:56:12.406Z,99556.47
2018-08-18T05:58:52.639Z,99551.27
2018-08-18T06:01:27.543Z,99544.48
2018-08-18T06:04:04.073Z,99529.20
2018-08-18T06:06:32.549Z,99561.98
2018-08-18T06:09:03.755Z,99550.09
2018-08-18T06:11:32.789Z,99544.03
2018-08-18T06:14:01.759Z,99536.86
2018-08-18T06:16:31.144Z,99523.51
2018-08-18T06:19:00.516Z,99537.59
2018-08-18T06:21:29.039Z,99544.78
2018-08-18T06:23:57.954Z,99545.88
2018-08-18T06:26:26.851Z,99550.99
2018-08-18T06:28:56.105Z,99528.13
2018-08-18T06:31:24.822Z,99548.00
2018-08-18T06:33:54.132Z,99539.56
2018-08-18T06:36:22.580Z,99573.05
2018-08-18T06:38:52.800Z,99575.20
2018-08-18T06:41:21.469Z,99567.17
2018-08-18T06:43:50.274Z,99574.08
2018-08-18T06:46:19.013Z,99574.88
2018-08-18T06:48:47.180Z,99580.67
2018-08-18T06:51:15.690Z,99575.30
2018-08-18T06:53:47.237Z,99576.13
2018-08-18T06:56:18.472Z,99581.42
2018-08-18T06:58:49.694Z,99553.20
2018-08-18T07:01:18.084Z,99574.25
2018-08-18T07:03:53.695Z,99581.67
2018-08-18T07:06:24.626Z,99582.33
2018-08-18T07:08:54.725Z,99577.14
2018-08-18T07:11:30.293Z,99584.86
2018-08-18T07:14:02.964Z,99580.80
2018-08-18T07:19:18.170Z,99580.94
2018-08-18T07:21:47.506Z,99542.61
2018-08-18T07:24:20.929Z,99584.99
2018-08-18T07:26:50.865Z,99581.68
2018-08-18T07:29:22.126Z,99580.22
2018-08-18T07:31:51.233Z,99570.28
2018-08-18T07:34:20.905Z,99584.35
2018-08-18T07:36:49.619Z,99608.88
2018-08-18T07:39:18.729Z,99586.52
2018-08-18T07:41:46.934Z,99591.00
2018-08-18T07:44:15.263Z,99587.81
2018-08-18T07:46:44.377Z,99593.05
2018-08-18T07:49:22.894Z,99594.30
2018-08-18T07:51:53.586Z,99600.22
2018-08-18T07:54:29.148Z,99610.70
2018-08-18T07:57:02.365Z,99605.70
2018-08-18T07:59:36.087Z,99504.49
2018-08-18T08:02:12.688Z,99608.48
2018-08-18T08:04:42.550Z,99608.93
2018-08-18T08:07:18.621Z,99616.39
2018-08-18T08:12:39.058Z,99616.23
2018-08-18T08:15:15.127Z,99622.02
2018-08-18T08:20:29.624Z,99616.39
2018-08-18T08:22:58.791Z,99616.95
2018-08-18T08:25:27.409Z,99615.73
2018-08-18T08:27:56.753Z,99621.70
2018-08-18T08:30:27.306Z,99624.69
2018-08-18T08:35:38.520Z,99626.88
2018-08-18T08:38:12.590Z,99622.34
2018-08-18T08:40:43.326Z,99628.68
2018-08-18T08:43:49.579Z,99629.27
2018-08-18T08:46:19.720Z,99631.80
2018-08-18T08:48:56.433Z,99633.52
2018-08-18T08:51:26.132Z,99630.73
2018-08-18T08:53:56.885Z,99640.08
2018-08-18T08:56:33.273Z,99636.47
2018-08-18T08:59:05.983Z,99635.99
2018-08-18T09:01:37.245Z,99636.43
2018-08-18T09:04:11.142Z,99632.84
2018-08-18T09:06:48.975Z,99623.05
2018-08-18T09:09:23.436Z,99660.20
2018-08-18T09:12:03.777Z,99626.75
2018-08-18T09:14:33.903Z,99628.41
2018-08-18T09:17:04.305Z,99581.93
2018-08-18T09:19:33.413Z,99571.88
2018-08-18T09:22:05.155Z,99618.28
2018-08-18T09:24:35.417Z,99621.22
2018-08-18T09:27:05.885Z,99618.86
2018-08-18T09:29:40.317Z,99617.91
2018-08-18T09:32:09.672Z,99616.84
2018-08-18T09:34:44.245Z,99619.68
2018-08-18T09:37:13.228Z,99627.94
2018-08-18T09:39:43.137Z,99619.95
2018-08-18T09:42:12.173Z,99594.11
2018-08-18T09:44:46.670Z,99617.79
2018-08-18T09:47:16.045Z,99621.38
2018-08-18T09:49:45.952Z,99620.20
2018-08-18T09:52:19.265Z,99618.56
2018-08-18T09:54:48.192Z,99612.94
2018-08-18T09:57:17.223Z,99608.12
2018-08-18T09:59:46.693Z,99613.86
2018-08-18T10:02:18.462Z,99614.14
2018-08-18T10:04:54.059Z,99617.00
2018-08-18T10:07:23.837Z,99601.63
2018-08-18T10:09:53.275Z,99619.45
2018-08-18T10:12:21.921Z,99617.88
2018-08-18T10:14:54.463Z,99614.87
2018-08-18T10:17:23.088Z,99614.05
2018-08-18T10:19:51.955Z,99612.28
2018-08-18T10:22:20.705Z,99619.30
2018-08-18T10:24:48.989Z,99617.20
2018-08-18T10:27:18.511Z,99611.23
2018-08-18T10:29:46.829Z,99610.69
2018-08-18T10:32:15.076Z,99611.55
2018-08-18T10:34:43.595Z,99599.34
2018-08-18T10:37:12.079Z,99615.44
2018-08-18T10:39:40.774Z,99612.75
2018-08-18T10:42:13.697Z,99609.70
2018-08-18T10:44:47.322Z,99604.28
2018-08-18T10:47:17.619Z,99608.03
2018-08-18T10:50:00.785Z,99598.34
2018-08-18T10:52:40.850Z,99603.05
2018-08-18T10:55:10.746Z,99584.33
2018-08-18T10:57:52.010Z,99598.80
2018-08-18T11:00:22.441Z,99591.84
2018-08-18T11:02:52.684Z,99592.06
2018-08-18T11:05:22.537Z,99595.85
2018-08-18T11:07:57.911Z,99592.06
2018-08-18T11:10:27.750Z,99590.86
2018-08-18T11:12:57.976Z,99599.80
2018-08-18T11:15:27.390Z,99594.92
2018-08-18T11:17:56.650Z,99601.48
2018-08-18T11:20:26.386Z,99599.77
2018-08-18T11:23:04.611Z,99597.13
2018-08-18T11:25:38.582Z,99598.25
2018-08-18T11:28:08.951Z,99593.11
2018-08-18T11:30:38.051Z,99598.03
2018-08-18T11:33:06.353Z,99606.58
2018-08-18T11:35:35.294Z,99599.91
2018-08-18T11:38:09.305Z,99600.22
2018-08-18T11:40:37.722Z,99581.92
2018-08-18T11:43:07.895Z,99603.17
2018-08-18T11:45:39.470Z,99603.69
2018-08-18T11:48:12.127Z,99598.31
2018-08-18T11:50:42.785Z,99595.96
2018-08-18T11:53:11.378Z,99598.73
2018-08-18T11:55:39.862Z,99584.95
2018-08-18T11:58:09.997Z,99591.61
2018-08-18T12:00:42.091Z,99535.44
2018-08-18T12:03:11.512Z,99588.63
2018-08-18T12:05:46.421Z,99587.91
2018-08-18T12:08:16.698Z,99583.34
2018-08-18T12:10:46.120Z,99588.52
2018-08-18T12:13:15.354Z,99570.97
2018-08-18T12:15:55.709Z,99562.27
2018-08-18T12:18:26.216Z,99578.86
2018-08-18T12:20:56.166Z,99574.89
2018-08-18T12:23:24.379Z,99578.38
2018-08-18T12:25:59.479Z,99567.80
2018-08-18T12:28:34.013Z,99561.22
2018-08-18T12:31:05.397Z,99540.77
2018-08-18T12:33:34.160Z,99557.20
2018-08-18T12:36:03.602Z,99556.23
2018-08-18T12:38:36.700Z,99551.89
2018-08-18T12:41:05.880Z,99557.02
2018-08-18T12:43:38.386Z,99550.22
2018-08-18T12:46:12.771Z,99541.47
2018-08-18T12:48:46.888Z,99537.81
2018-08-18T12:51:20.027Z,99534.11
2018-08-18T12:53:54.527Z,99528.39
2018-08-18T12:56:26.688Z,99540.09
2018-08-18T12:58:55.336Z,99529.70
2018-08-18T13:01:36.446Z,99525.70
2018-08-18T13:04:08.444Z,99527.44
2018-08-18T13:06:43.036Z,99509.16
2018-08-18T13:09:14.663Z,99448.31
2018-08-18T13:11:51.041Z,99493.02
2018-08-18T13:14:26.224Z,99512.48
2018-08-18T13:17:02.478Z,99512.19
2018-08-18T13:19:37.188Z,99515.44
2018-08-18T13:22:06.048Z,99505.09
2018-08-18T13:24:34.752Z,99503.89
2018-08-18T13:27:04.807Z,99497.63
2018-08-18T13:29:33.626Z,99469.81
2018-08-18T13:32:03.822Z,99493.16
2018-08-18T13:34:32.553Z,99486.33
2018-08-18T13:37:01.071Z,99474.09
2018-08-18T13:39:30.149Z,99482.35
2018-08-18T13:41:59.071Z,99472.47
2018-08-18T13:44:35.426Z,99484.34
2018-08-18T13:47:04.447Z,99476.56
2018-08-18T13:49:33.144Z,99477.40
2018-08-18T13:52:02.322Z,99473.55
2018-08-18T13:54:30.871Z,99477.41
2018-08-18T13:57:00.607Z,99479.58
2018-08-18T13:59:46.465Z,99458.13
2018-08-18T14:02:15.115Z,99463.27
2018-08-18T14:04:47.219Z,99468.18
2018-08-18T14:07:18.891Z,99474.75
2018-08-18T14:09:53.192Z,99471.12
2018-08-18T14:12:22.199Z,99468.16
2018-08-18T14:14:51.289Z,99463.59
2018-08-18T14:17:21.955Z,99450.80
2018-08-18T14:19:51.214Z,99465.24
2018-08-18T14:22:21.019Z,99463.81
2018-08-18T14:24:50.718Z,99476.34
2018-08-18T14:27:22.494Z,99455.50
2018-08-18T14:29:53.261Z,99451.96
2018-08-18T14:32:29.046Z,99410.31
2018-08-18T14:35:06.516Z,99448.77
2018-08-18T14:37:39.209Z,99449.75
2018-08-18T14:40:12.640Z,99456.48
2018-08-18T14:42:42.308Z,99457.38
2018-08-18T14:45:15.159Z,99454.00
2018-08-18T14:47:45.685Z,99448.33
2018-08-18T14:50:31.754Z,99436.17
2018-08-18T14:53:00.663Z,99447.49
2018-08-18T14:55:29.643Z,99445.22
2018-08-18T14:58:02.176Z,99417.88
2018-08-18T15:00:31.159Z,99443.65
2018-08-18T15:02:59.835Z,99423.83
2018-08-18T15:05:28.136Z,99443.23
2018-08-18T15:07:58.107Z,99438.40
2018-08-18T15:10:35.259Z,99436.46
2018-08-18T15:13:04.225Z,99436.83
2018-08-18T15:15:33.524Z,99424.61
2018-08-18T15:18:05.190Z,99414.92
2018-08-18T15:20:34.637Z,99420.05
2018-08-18T15:23:04.724Z,99415.67
2018-08-18T15:25:34.407Z,99426.94
2018-08-18T15:28:06.758Z,99423.15
2018-08-18T15:30:37.714Z,99426.21
2018-08-18T15:33:08.125Z,99398.05
2018-08-18T15:35:37.970Z,99417.30
2018-08-18T15:38:07.031Z,99417.93
2018-08-18T15:40:35.598Z,99402.77
2018-08-18T15:43:03.944Z,99407.69
2018-08-18T15:46:03.120Z,99422.04
2018-08-18T15:48:32.086Z,99391.40
2018-08-18T15:51:02.343Z,99385.41
2018-08-18T15:53:47.162Z,99396.52
2018-08-18T15:56:15.612Z,99396.30
2018-08-18T15:58:45.766Z,99388.46
2018-08-18T16:01:15.785Z,99403.95
2018-08-18T16:03:46.184Z,99395.30
2018-08-18T16:06:15.103Z,99404.80
2018-08-18T16:08:43.431Z,99404.20
2018-08-18T16:11:13.303Z,99416.43
2018-08-18T16:13:41.819Z,99399.12
2018-08-18T16:16:10.386Z,99383.11
2018-08-18T16:18:38.542Z,99402.66
2018-08-18T16:21:14.634Z,99393.95
2018-08-18T16:23:44.772Z,99393.44
2018-08-18T16:26:13.505Z,99390.37
2018-08-18T16:28:42.206Z,99393.12
2018-08-18T16:31:11.100Z,99388.92
2018-08-18T16:33:39.719Z,99381.52
2018-08-18T16:36:08.428Z,99372.80
2018-08-18T16:38:36.943Z,99392.98
2018-08-18T16:41:05.547Z,99403.27
2018-08-18T16:43:35.947Z,99391.47
2018-08-18T16:46:22.668Z,99391.52
2018-08-18T16:48:54.636Z,99395.86
2018-08-18T16:51:23.223Z,99395.70
2018-08-18T16:53:51.617Z,99365.16
2018-08-18T16:56:22.567Z,99398.13
2018-08-18T16:58:51.913Z,99399.63
2018-08-18T17:01:20.840Z,99392.50
2018-08-18T17:03:50.541Z,99395.56
2018-08-18T17:06:19.570Z,99393.54
2018-08-18T17:08:48.346Z,99396.72
2018-08-18T17:11:17.196Z,99402.83
2018-08-18T17:13:46.973Z,99399.73
2018-08-18T17:16:15.505Z,99397.39
2018-08-18T17:18:45.148Z,99398.66
2018-08-18T17:21:17.113Z,99406.17
2018-08-18T17:23:45.480Z,99399.49
2018-08-18T17:26:16.436Z,99374.83
2018-08-18T17:28:54.615Z,99291.33
2018-08-18T17:31:26.148Z,99411.97
2018-08-18T17:33:57.181Z,99392.48
2018-08-18T17:36:31.445Z,99410.41
2018-08-18T17:39:00.106Z,99409.05
2018-08-18T17:41:28.789Z,99417.52
2018-08-18T17:44:01.404Z,99420.45
2018-08-18T17:46:30.708Z,99421.52
2018-08-18T17:49:04.084Z,99420.47
2018-08-18T17:51:35.549Z,99424.95
2018-08-18T17:54:06.057Z,99445.78
2018-08-18T17:56:36.135Z,99425.22
2018-08-18T17:59:06.522Z,99426.58
2018-08-18T18:01:47.491Z,99421.63
2018-08-18T18:04:16.206Z,99430.09
2018-08-18T18:06:44.490Z,99428.44
2018-08-18T18:09:13.190Z,99410.42
2018-08-18T18:11:42.696Z,99439.48
2018-08-18T18:14:11.457Z,99441.63
2018-08-18T18:16:42.448Z,99446.63
2018-08-18T18:19:12.187Z,99443.34
2018-08-18T18:21:45.849Z,99450.88
2018-08-18T18:24:14.256Z,99494.28
2018-08-18T18:26:47.223Z,99452.45
2018-08-18T18:29:21.919Z,99450.77
2018-08-18T18:31:51.249Z,99427.86
2018-08-18T18:34:19.616Z,99455.28
2018-08-18T18:36:50.581Z,99462.83
2018-08-18T18:39:20.709Z,99461.78
2018-08-18T18:41:49.014Z,99468.55
2018-08-18T18:44:18.651Z,99469.41
2018-08-18T18:46:47.013Z,99469.89
2018-08-18T18:49:38.770Z,99461.64
2018-08-18T18:52:07.793Z,99482.12
2018-08-18T18:54:36.936Z,99481.48
2018-08-18T18:57:07.106Z,99481.46
2018-08-18T18:59:42.747Z,99482.21
2018-08-18T19:02:11.296Z,99493.98
2018-08-18T19:04:40.299Z,99488.66
2018-08-18T19:07:11.254Z,99492.36
2018-08-18T19:09:39.599Z,99492.06
2018-08-18T19:12:08.963Z,99493.27
2018-08-18T19:14:38.198Z,99495.22
2018-08-18T19:17:09.207Z,99498.64
2018-08-18T19:19:39.321Z,99494.81
2018-08-18T19:22:10.765Z,99499.16
2018-08-18T19:24:39.389Z,99494.31
2018-08-18T19:27:09.639Z,99498.47
2018-08-18T19:29:41.041Z,99397.09
2018-08-18T19:32:10.649Z,99507.44
2018-08-18T19:34:39.167Z,99468.52
2018-08-18T19:37:09.958Z,99500.58
2018-08-18T19:39:39.370Z,99503.58
2018-08-18T19:42:18.573Z,99507.46
2018-08-18T19:44:49.734Z,99506.78
2018-08-18T19:47:32.410Z,99486.16
2018-08-18T19:52:38.690Z,99494.20
2018-08-18T19:55:10.931Z,99503.73
2018-08-18T19:57:42.698Z,99511.91
2018-08-18T20:00:22.838Z,99509.39
2018-08-18T20:03:04.347Z,99513.95
2018-08-18T20:05:43.166Z,99519.78
2018-08-18T20:08:17.695Z,99510.23
2018-08-18T20:10:54.669Z,99525.77
2018-08-18T20:13:26.469Z,99520.34
2018-08-18T20:15:59.428Z,99520.58
2018-08-18T20:18:29.938Z,99511.50
2018-08-18T20:21:00.051Z,99518.85
2018-08-18T20:23:31.820Z,99555.83
2018-08-18T20:26:02.656Z,99531.29
2018-08-18T20:28:32.107Z,99527.58
2018-08-18T20:31:01.629Z,99547.98
2018-08-18T20:33:31.282Z,99533.80
2018-08-18T20:36:00.510Z,99549.81
2018-08-18T20:38:37.356Z,99550.44
2018-08-18T20:41:10.669Z,99539.42
2018-08-18T20:43:46.330Z,99514.48
2018-08-18T20:46:17.149Z,99540.03
2018-08-18T20:48:45.622Z,99563.52
2018-08-18T20:51:21.396Z,99573.87
2018-08-18T20:53:50.003Z,99575.91
2018-08-18T20:56:18.630Z,99568.70
2018-08-18T20:58:47.147Z,99579.42
2018-08-18T21:01:15.794Z,99577.14
2018-08-18T21:03:48.989Z,99560.64
2018-08-18T21:06:18.242Z,99582.28
2018-08-18T21:08:50.332Z,99570.16
2018-08-18T21:11:19.511Z,99553.56
2018-08-18T21:13:49.525Z,99580.70
2018-08-18T21:16:21.268Z,99573.99
2018-08-18T21:18:51.912Z,99597.60
2018-08-18T21:21:27.698Z,99593.68
2018-08-18T21:23:57.761Z,99580.00
2018-08-18T21:26:29.022Z,99598.16
2018-08-18T21:28:58.194Z,99580.36
2018-08-18T21:31:31.906Z,99582.13
2018-08-18T21:34:05.638Z,99582.91
2018-08-18T21:36:36.205Z,99598.01
2018-08-18T21:39:07.524Z,99595.08
2018-08-18T21:41:37.786Z,99591.47
2018-08-18T21:44:08.810Z,99601.01
2018-08-18T21:46:40.891Z,99600.69
2018-08-18T21:49:11.023Z,99601.08
2018-08-18T21:51:41.950Z,99589.55
2018-08-18T21:54:10.365Z,99595.58
2018-08-18T21:56:40.828Z,99597.70
2018-08-18T21:59:11.046Z,99584.02
2018-08-18T22:01:40.379Z,99597.32
2018-08-18T22:04:10.106Z,99598.22
2018-08-18T22:06:39.207Z,99596.33
2018-08-18T22:09:20.568Z,99577.10
2018-08-18T22:11:49.234Z,99600.31
2018-08-18T22:14:21.078Z,99594.48
2018-08-18T22:17:07.356Z,99588.08
2018-08-18T22:19:37.039Z,99590.37
2018-08-18T22:22:06.832Z,99598.00
2018-08-18T22:24:35.291Z,99588.63
2018-08-18T22:27:04.236Z,99543.48
2018-08-18T22:29:32.948Z,99590.75
2018-08-18T22:32:11.823Z,99586.56
2018-08-18T22:34:41.144Z,99590.07
2018-08-18T22:37:15.141Z,99567.00
2018-08-18T22:39:44.380Z,99587.65
2018-08-18T22:42:15.176Z,99591.09
2018-08-18T22:44:45.296Z,99589.06
2018-08-18T22:47:15.273Z,99542.70
2018-08-18T22:49:43.820Z,99575.47
2018-08-18T22:52:12.042Z,99596.64
2018-08-18T22:54:40.916Z,99592.61
2018-08-18T22:57:12.942Z,99583.02
2018-08-18T22:59:41.705Z,99595.34
2018-08-18T23:02:10.703Z,99566.47
2018-08-18T23:04:41.337Z,99583.88
2018-08-18T23:07:14.794Z,99546.41
2018-08-18T23:09:48.671Z,99596.89
2018-08-18T23:12:19.890Z,99594.71
2018-08-18T23:14:49.268Z,99594.14
2018-08-18T23:17:22.335Z,99554.36
2018-08-18T23:19:55.622Z,99565.50
2018-08-18T23:22:42.313Z,99600.13
2018-08-18T23:25:12.035Z,99596.10
2018-08-18T23:27:42.253Z,99598.89
2018-08-18T23:30:21.177Z,99596.34
2018-08-18T23:32:54.667Z,99587.13
2018-08-18T23:35:30.917Z,99543.45
2018-08-18T23:38:00.441Z,99601.69
2018-08-18T23:40:33.361Z,99552.13
2018-08-18T23:43:03.108Z,99598.03
2018-08-18T23:45:39.092Z,99606.17
2018-08-18T23:48:10.883Z,99605.55
2018-08-18T23:50:41.555Z,99597.48
2018-08-18T23:53:13.167Z,99603.80
2018-08-18T23:55:48.666Z,99600.39
2018-08-18T23:58:22.364Z,99573.16
